Time;durP1;ratioP1;P1;durP2;ratioP2;P2;SDS_P1;SDS_P2;PMS_P1;PMS_P2;Temp;Humidity;BMP_temperature;BMP_pressure;BME280_temperature;BME280_humidity;BME280_pressure;Samples;Min_cycle;Max_cycle;Signal;HPM_P1;HPM_P2
2022/07/07 00:01:46;;;;;;;14.00;7.30;;;;;;;17.55;81.21;101957.16;4896677;29;20457;-72
2022/07/07 00:04:11;;;;;;;12.00;5.68;;;;;;;17.48;80.95;101943.72;4879427;29;20025;-67
2022/07/07 00:06:37;;;;;;;11.43;6.32;;;;;;;17.52;80.88;101953.00;4896726;29;20129;-67
2022/07/07 00:09:04;;;;;;;10.38;5.93;;;;;;;17.51;81.14;101949.50;4896693;29;20037;-67
2022/07/07 00:11:30;;;;;;;12.23;7.13;;;;;;;17.53;81.07;101950.09;4896910;29;20047;-67
2022/07/07 00:13:55;;;;;;;15.25;6.13;;;;;;;17.52;81.33;101950.31;4896405;29;20033;-67
2022/07/07 00:16:21;;;;;;;15.82;7.40;;;;;;;17.53;81.51;101941.19;4896628;29;20449;-67
2022/07/07 00:18:47;;;;;;;10.15;6.05;;;;;;;17.53;81.58;101943.91;4896433;29;20384;-67
2022/07/07 00:21:12;;;;;;;13.45;6.90;;;;;;;17.50;81.41;101942.47;4896349;29;20036;-67
2022/07/07 00:23:38;;;;;;;12.82;8.27;;;;;;;17.51;81.58;101938.69;4896388;29;20028;-67
2022/07/07 00:26:03;;;;;;;12.70;7.18;;;;;;;17.53;81.51;101935.81;4896148;29;20047;-67
2022/07/07 00:28:29;;;;;;;15.05;6.70;;;;;;;17.51;81.89;101921.69;4895921;29;20044;-67
2022/07/07 00:30:55;;;;;;;12.20;6.57;;;;;;;17.51;81.78;101905.50;4896151;29;20058;-67
2022/07/07 00:33:20;;;;;;;12.23;6.80;;;;;;;17.51;81.83;101910.91;4895671;29;20469;-67
2022/07/07 00:35:46;;;;;;;13.82;6.95;;;;;;;17.50;81.75;101902.00;4896707;29;20029;-67
2022/07/07 00:38:11;;;;;;;13.25;6.90;;;;;;;17.48;82.02;101906.78;4895701;29;20084;-67
2022/07/07 00:40:36;;;;;;;15.02;6.68;;;;;;;17.48;81.96;101906.78;4895573;29;20556;-67
2022/07/07 00:43:02;;;;;;;15.13;7.18;;;;;;;17.49;81.86;101907.59;4878830;29;20039;-67
2022/07/07 00:45:27;;;;;;;14.65;7.80;;;;;;;17.48;81.96;101901.38;4895860;29;20076;-67
2022/07/07 00:47:53;;;;;;;12.73;6.57;;;;;;;17.45;81.70;101898.28;4895493;29;20068;-67
2022/07/07 00:50:19;;;;;;;10.18;5.88;;;;;;;17.46;81.67;101892.66;4895503;29;20036;-67
2022/07/07 00:52:46;;;;;;;10.38;5.80;;;;;;;17.50;81.75;101891.22;4895835;29;20412;-67
2022/07/07 00:55:11;;;;;;;12.30;5.93;;;;;;;17.51;81.55;101889.31;4895224;29;20485;-67
2022/07/07 00:57:37;;;;;;;12.98;6.28;;;;;;;17.51;81.52;101897.41;4895178;29;20078;-67
2022/07/07 01:00:09;;;;;;;14.02;6.00;;;;;;;17.48;81.90;101878.97;4894908;29;20056;-67
2022/07/07 01:02:35;;;;;;;14.80;7.70;;;;;;;17.50;81.90;101891.22;4895292;29;20115;-67
2022/07/07 01:05:04;;;;;;;15.18;6.70;;;;;;;17.50;81.74;101888.50;4895183;29;20035;-67
2022/07/07 01:07:31;;;;;;;14.32;7.70;;;;;;;17.52;81.60;101885.56;4895190;29;20032;-67
2022/07/07 01:09:57;;;;;;;13.63;6.57;;;;;;;17.51;81.63;101887.44;4894908;29;20048;-67
2022/07/07 01:12:23;;;;;;;11.73;6.18;;;;;;;17.52;81.70;101894.50;4895089;29;20531;-67
2022/07/07 01:14:49;;;;;;;13.80;6.18;;;;;;;17.51;81.59;101881.25;4895277;29;20473;-67
2022/07/07 01:17:15;;;;;;;11.30;6.50;;;;;;;17.53;81.65;101885.38;4895046;29;20033;-67
2022/07/07 01:19:40;;;;;;;12.63;6.30;;;;;;;17.52;82.05;101878.31;4894982;29;20036;-67
2022/07/07 01:22:17;;;;;;;11.43;5.75;;;;;;;17.45;81.88;101869.44;4895366;29;20033;-67
2022/07/07 01:24:43;;;;;;;12.73;5.82;;;;;;;17.56;81.77;101883.28;4894795;29;20039;-67
2022/07/07 01:27:11;;;;;;;9.73;5.32;;;;;;;17.53;82.21;101879.97;4894700;29;20047;-68
2022/07/07 01:29:38;;;;;;;11.07;6.07;;;;;;;17.52;81.85;101877.47;4894837;29;20040;-67
2022/07/07 01:32:05;;;;;;;9.73;5.57;;;;;;;17.53;82.27;101879.97;4862648;29;20037;-67
2022/07/07 01:34:31;;;;;;;11.10;5.88;;;;;;;17.55;82.29;101860.03;4894742;29;20211;-67
2022/07/07 01:36:56;;;;;;;10.20;5.57;;;;;;;17.53;82.78;101860.28;4894798;29;20043;-67
2022/07/07 01:39:22;;;;;;;13.10;5.70;;;;;;;17.53;82.53;101863.78;4894681;29;20117;-67
2022/07/07 01:41:47;;;;;;;10.65;6.32;;;;;;;17.51;82.97;101848.88;4894555;29;20055;-67
2022/07/07 01:44:13;;;;;;;10.93;5.75;;;;;;;17.43;83.02;101841.03;4894509;29;20071;-67
2022/07/07 01:46:38;;;;;;;10.63;5.40;;;;;;;17.48;83.14;101850.13;4877594;29;20384;-67
2022/07/07 01:49:03;;;;;;;9.30;5.43;;;;;;;17.52;83.01;101850.50;4894484;29;20033;-67
2022/07/07 01:51:29;;;;;;;8.23;5.15;;;;;;;17.49;83.07;101840.97;4894351;29;20092;-67
2022/07/07 01:53:54;;;;;;;10.95;5.22;;;;;;;17.51;83.17;101847.00;4894243;29;20084;-68
2022/07/07 01:56:19;;;;;;;9.82;5.65;;;;;;;17.51;83.29;101848.88;4877654;29;20068;-67
2022/07/07 01:58:45;;;;;;;11.45;5.53;;;;;;;17.49;83.45;101849.06;4894075;29;20036;-67
2022/07/07 02:01:10;;;;;;;8.98;5.32;;;;;;;17.41;83.37;101843.94;4894077;29;20059;-67
2022/07/07 02:03:36;;;;;;;10.23;6.15;;;;;;;17.50;83.69;101844.50;4877415;29;20040;-68
2022/07/07 02:06:01;;;;;;;9.98;5.90;;;;;;;17.49;83.75;101848.25;4894175;29;20041;-67
2022/07/07 02:08:26;;;;;;;11.38;5.30;;;;;;;17.49;83.81;101848.25;4894083;29;20028;-68
2022/07/07 02:13:36;;;;;;;11.82;5.80;;;;;;;17.48;83.82;101849.31;4894217;29;20124;-67
2022/07/07 02:16:01;;;;;;;12.43;5.97;;;;;;;17.46;84.13;101844.13;4894055;29;20028;-67
2022/07/07 02:18:28;;;;;;;10.75;6.10;;;;;;;17.44;84.19;101838.13;4893926;29;20481;-67
2022/07/07 02:20:54;;;;;;;9.15;4.80;;;;;;;17.47;84.45;101848.47;4894026;29;20484;-67
2022/07/07 02:23:19;;;;;;;13.90;5.75;;;;;;;17.48;85.00;101844.72;4893349;29;20043;-67
2022/07/07 02:25:44;;;;;;;8.68;5.25;;;;;;;17.46;85.51;101841.44;4893799;29;20044;-67
2022/07/07 02:28:10;;;;;;;8.05;4.80;;;;;;;17.46;85.77;101851.38;4893728;29;20037;-67
2022/07/07 02:30:35;;;;;;;9.73;5.72;;;;;;;17.44;85.89;101845.38;4893738;29;20036;-67
2022/07/07 02:33:00;;;;;;;8.98;5.22;;;;;;;17.41;86.36;101843.94;4893833;29;20486;-67
2022/07/07 02:35:26;;;;;;;9.65;5.03;;;;;;;17.42;86.31;101842.91;4893707;29;20455;-67
2022/07/07 02:37:51;;;;;;;8.63;4.80;;;;;;;17.42;86.32;101832.13;4893822;29;20850;-67
2022/07/07 02:40:16;;;;;;;9.07;5.03;;;;;;;17.42;86.33;101834.84;4894499;29;20029;-67
2022/07/07 02:42:42;;;;;;;14.43;5.90;;;;;;;17.41;86.32;101826.94;4876696;29;20047;-67
2022/07/07 02:45:07;;;;;;;11.95;6.30;;;;;;;17.42;86.48;101832.13;4876719;29;20032;-68
2022/07/07 02:47:33;;;;;;;7.65;4.75;;;;;;;17.39;86.37;101840.63;4893927;29;20499;-67
2022/07/07 02:49:58;;;;;;;9.95;4.90;;;;;;;17.35;86.67;101830.53;4876732;29;20067;-67
2022/07/07 02:52:24;;;;;;;8.85;4.18;;;;;;;17.44;86.80;101835.41;4893523;29;20131;-67
2022/07/07 02:54:49;;;;;;;9.43;4.18;;;;;;;17.44;86.94;101838.13;4893545;29;20116;-67
2022/07/07 02:57:14;;;;;;;8.10;4.00;;;;;;;17.44;87.41;101850.78;4876580;29;20036;-67
2022/07/07 02:59:40;;;;;;;10.02;5.00;;;;;;;17.46;88.39;101851.38;4893263;29;20036;-67
2022/07/07 03:02:05;;;;;;;8.63;4.65;;;;;;;17.41;88.49;101838.56;4893788;29;20028;-67
2022/07/07 03:04:30;;;;;;;8.73;4.30;;;;;;;17.37;89.43;101837.34;4893968;29;20087;-67
2022/07/07 03:06:56;;;;;;;7.10;4.30;;;;;;;17.34;89.48;101851.25;4893448;29;20124;-67
2022/07/07 03:09:21;;;;;;;8.48;4.13;;;;;;;17.30;90.13;101847.34;4893738;29;20029;-68
2022/07/07 03:11:46;;;;;;;6.78;3.80;;;;;;;17.27;89.08;101847.78;4893361;29;20151;-68
2022/07/07 03:14:12;;;;;;;7.80;3.80;;;;;;;17.26;88.13;101846.13;4876449;29;20169;-67
2022/07/07 03:16:37;;;;;;;4.50;3.65;;;;;;;17.23;87.79;101847.38;4893364;29;20348;-67
2022/07/07 03:19:03;;;;;;;8.18;2.92;;;;;;;17.21;88.13;101844.09;4893219;29;20124;-68
2022/07/07 03:21:28;;;;;;;3.88;2.50;;;;;;;17.20;86.42;101844.28;4893245;29;20032;-68
2022/07/07 03:23:53;;;;;;;2.50;2.30;;;;;;;17.15;85.86;101844.13;4893308;29;20044;-67
2022/07/07 03:26:19;;;;;;;5.07;2.35;;;;;;;17.16;85.33;101848.44;4893201;29;20611;-67
2022/07/07 03:28:44;;;;;;;8.90;2.42;;;;;;;17.13;85.76;101862.38;4893493;29;20380;-67
2022/07/07 03:31:09;;;;;;;7.25;2.67;;;;;;;17.08;86.37;101849.53;4893272;29;20413;-67
2022/07/07 03:33:35;;;;;;;3.67;2.50;;;;;;;17.00;87.75;101855.16;4894651;29;20389;-68
2022/07/07 03:36:00;;;;;;;6.28;3.05;;;;;;;16.89;89.01;101856.66;4897143;29;20452;-67
2022/07/07 03:38:25;;;;;;;3.55;2.30;;;;;;;16.81;90.22;101855.03;4897081;29;20436;-68
2022/07/07 03:40:51;;;;;;;4.30;2.95;;;;;;;16.72;90.55;101847.41;4896602;29;20040;-67
2022/07/07 03:43:16;;;;;;;5.47;2.38;;;;;;;16.67;91.35;101849.91;4879995;29;20068;-67
2022/07/07 03:45:41;;;;;;;4.95;2.65;;;;;;;16.59;91.83;101837.50;4896712;29;20536;-67
2022/07/07 03:48:07;;;;;;;3.13;2.58;;;;;;;16.56;92.25;101846.81;4896451;29;20396;-67
2022/07/07 03:50:32;;;;;;;3.00;2.38;;;;;;;16.54;92.28;101848.91;4896637;29;20361;-67
2022/07/07 03:52:58;;;;;;;4.80;2.55;;;;;;;16.52;91.67;101848.28;4896453;29;20072;-67
2022/07/07 03:55:23;;;;;;;10.02;3.60;;;;;;;16.49;92.31;101837.94;4896369;29;20169;-67
2022/07/07 03:57:49;;;;;;;4.88;2.72;;;;;;;16.49;92.36;101846.00;4896333;29;20143;-68
2022/07/07 04:00:14;;;;;;;4.18;2.30;;;;;;;16.49;92.48;101842.50;4896078;29;20200;-67
2022/07/07 04:02:40;;;;;;;3.05;2.38;;;;;;;16.49;92.67;101842.50;4896228;29;20092;-68
2022/07/07 04:05:05;;;;;;;3.03;2.40;;;;;;;16.47;92.43;101842.69;4896309;29;20085;-67
2022/07/07 04:07:33;;;;;;;3.25;2.28;;;;;;;16.49;92.38;101845.19;4896522;29;20040;-68
2022/07/07 04:10:00;;;;;;;3.58;2.60;;;;;;;16.50;92.19;101834.19;4896622;29;20037;-67
2022/07/07 04:12:25;;;;;;;2.63;2.25;;;;;;;16.52;92.70;101823.22;4895077;29;20048;-67
2022/07/07 04:14:50;;;;;;;3.78;2.35;;;;;;;16.50;93.10;101819.91;4896420;29;20042;-68
2022/07/07 04:17:16;;;;;;;5.22;3.33;;;;;;;16.47;93.13;101829.22;4896294;29;20039;-68
2022/07/07 04:19:41;;;;;;;7.70;2.75;;;;;;;16.47;93.42;101828.41;4896391;29;20029;-68
2022/07/07 04:22:07;;;;;;;6.57;2.80;;;;;;;16.43;93.45;101817.25;4896576;29;20041;-67
2022/07/07 04:24:32;;;;;;;3.75;2.80;;;;;;;16.45;94.20;101823.22;4896441;29;20040;-67
2022/07/07 04:26:57;;;;;;;5.40;2.58;;;;;;;16.42;94.47;101812.88;4893697;29;20029;-68
2022/07/07 04:29:23;;;;;;;6.80;3.13;;;;;;;16.42;94.67;101826.34;4891472;29;20040;-67
2022/07/07 04:31:48;;;;;;;4.72;2.88;;;;;;;16.43;94.75;101825.31;4896196;29;20048;-68
2022/07/07 04:34:14;;;;;;;5.10;2.58;;;;;;;16.41;95.10;101832.78;4896073;29;20032;-68
2022/07/07 04:36:40;;;;;;;4.72;2.67;;;;;;;16.39;95.10;101830.28;4896013;29;20148;-67
2022/07/07 04:39:05;;;;;;;4.68;3.13;;;;;;;16.40;95.48;101833.81;4896057;29;20392;-68
2022/07/07 04:41:31;;;;;;;2.92;2.65;;;;;;;16.37;96.33;101831.53;4896025;29;20119;-68
2022/07/07 04:43:56;;;;;;;6.13;3.60;;;;;;;16.35;96.73;101841.72;4896394;29;20111;-68
2022/07/07 04:46:21;;;;;;;7.32;3.30;;;;;;;16.33;97.30;101851.84;4895198;29;20052;-67
2022/07/07 04:48:47;;;;;;;3.95;3.17;;;;;;;16.28;97.87;101852.47;4895815;29;20036;-67
2022/07/07 04:51:12;;;;;;;5.32;2.60;;;;;;;16.18;98.54;101854.78;4895887;29;20040;-68
2022/07/07 04:53:37;;;;;;;5.93;3.17;;;;;;;16.14;98.40;101862.44;4895702;29;20530;-68
2022/07/07 04:56:04;;;;;;;4.50;2.50;;;;;;;16.06;99.27;101854.59;4895807;29;20604;-67
2022/07/07 04:58:29;;;;;;;5.47;2.03;;;;;;;16.02;99.24;101853.34;4895513;29;20048;-67
2022/07/07 05:00:55;;;;;;;3.80;2.38;;;;;;;15.98;100.00;101857.47;4895336;29;20053;-67
2022/07/07 05:03:20;;;;;;;4.88;2.35;;;;;;;15.95;99.54;101858.72;4895557;29;20048;-67
2022/07/07 05:05:45;;;;;;;3.47;2.20;;;;;;;15.98;99.61;101865.53;4895649;29;20032;-67
2022/07/07 05:08:11;;;;;;;8.00;2.65;;;;;;;15.99;99.93;101878.81;4878625;29;20056;-72
2022/07/07 05:10:36;;;;;;;6.50;3.45;;;;;;;16.00;99.82;101872.38;4878581;29;20039;-72
2022/07/07 05:13:01;;;;;;;9.43;3.28;;;;;;;16.05;100.00;101876.31;4887696;29;20072;-72
2022/07/07 05:15:26;;;;;;;4.00;2.38;;;;;;;16.03;100.00;101873.00;4895271;29;20037;-72
2022/07/07 05:17:52;;;;;;;3.83;2.33;;;;;;;16.06;100.00;101877.97;4895489;29;20048;-72
2022/07/07 05:20:17;;;;;;;4.85;1.73;;;;;;;16.11;99.22;101880.84;4895336;29;20028;-73
2022/07/07 05:22:43;;;;;;;1.50;1.40;;;;;;;16.10;99.05;101885.41;4895376;29;20036;-72
2022/07/07 05:25:08;;;;;;;4.95;2.30;;;;;;;16.10;98.60;101881.91;4895459;29;20025;-73
2022/07/07 05:27:34;;;;;;;8.30;2.92;;;;;;;16.09;98.41;101894.53;4895102;29;20028;-72
2022/07/07 05:29:59;;;;;;;8.77;2.33;;;;;;;16.13;98.76;101886.88;4894897;29;20501;-72
2022/07/07 05:32:25;;;;;;;4.18;1.58;;;;;;;16.11;98.41;101892.47;4894869;29;20136;-72
2022/07/07 05:34:50;;;;;;;5.60;1.98;;;;;;;16.13;98.39;101887.69;4894848;29;20032;-72
2022/07/07 05:37:15;;;;;;;3.92;2.30;;;;;;;16.14;98.45;101889.38;4894899;29;20036;-73
2022/07/07 05:39:41;;;;;;;4.97;2.03;;;;;;;16.18;97.99;101895.16;4895188;29;20077;-72
2022/07/07 05:42:06;;;;;;;3.92;2.38;;;;;;;16.24;97.79;101905.06;4878308;29;20049;-72
2022/07/07 05:44:31;;;;;;;8.50;2.30;;;;;;;16.20;97.04;101901.97;4895074;29;20108;-72
2022/07/07 05:46:57;;;;;;;5.50;1.83;;;;;;;16.21;96.92;101911.69;4894805;29;20040;-72
2022/07/07 05:49:22;;;;;;;8.57;2.63;;;;;;;16.27;97.07;101928.06;4894711;29;20029;-72
2022/07/07 05:51:47;;;;;;;8.13;2.72;;;;;;;16.29;95.90;101924.13;4894573;29;20123;-72
2022/07/07 05:54:13;;;;;;;5.60;1.70;;;;;;;16.31;95.55;101932.81;4894600;29;20064;-72
2022/07/07 05:56:38;;;;;;;3.35;1.75;;;;;;;16.32;95.81;101936.34;4886310;29;20041;-68
2022/07/07 05:59:04;;;;;;;4.55;1.55;;;;;;;16.24;96.07;101931.16;4894884;29;20497;-67
2022/07/07 06:01:29;;;;;;;3.08;1.90;;;;;;;16.19;97.33;101938.03;4894498;29;20108;-67
2022/07/07 06:03:54;;;;;;;7.22;2.17;;;;;;;16.17;97.80;101945.47;4894606;29;20583;-67
2022/07/07 06:06:20;;;;;;;4.50;1.73;;;;;;;16.13;96.98;101933.44;4894332;29;20075;-67
2022/07/07 06:08:45;;;;;;;9.35;2.10;;;;;;;16.20;96.53;101950.44;4877496;29;20063;-67
2022/07/07 06:11:10;;;;;;;3.85;1.35;;;;;;;16.20;95.26;101952.31;4894528;29;20060;-67
2022/07/07 06:13:36;;;;;;;3.85;2.35;;;;;;;16.18;94.34;101959.75;4877193;29;20106;-67
2022/07/07 06:16:01;;;;;;;3.45;2.30;;;;;;;16.22;94.84;101963.69;4894289;29;20409;-67
2022/07/07 06:18:26;;;;;;;3.92;1.50;;;;;;;16.40;93.14;101973.81;4894399;29;20028;-68
2022/07/07 06:20:52;;;;;;;3.00;1.58;;;;;;;16.42;93.81;101958.28;4894312;29;20126;-67
2022/07/07 06:23:17;;;;;;;6.20;1.38;;;;;;;16.49;92.05;101969.88;4894287;29;20039;-67
2022/07/07 06:25:45;;;;;;;5.78;2.15;;;;;;;16.57;92.63;101985.00;4894172;29;20044;-67
2022/07/07 06:28:11;;;;;;;6.63;1.38;;;;;;;16.59;90.91;101985.63;4894167;29;20484;-67
2022/07/07 06:30:36;;;;;;;7.00;1.83;;;;;;;16.65;89.74;101996.38;4894089;29;20621;-67
2022/07/07 06:33:02;;;;;;;7.00;1.40;;;;;;;16.70;89.44;101995.78;4894052;29;20028;-68
2022/07/07 06:35:27;;;;;;;7.88;1.55;;;;;;;16.79;89.61;101999.09;4877062;29;20040;-67
2022/07/07 06:37:53;;;;;;;6.40;2.00;;;;;;;16.82;89.39;101993.28;4893907;29;20044;-67
2022/07/07 06:40:19;;;;;;;10.20;1.55;;;;;;;16.76;87.66;101983.31;4886352;29;20157;-68
2022/07/07 06:42:44;;;;;;;6.60;0.90;;;;;;;16.72;88.03;102000.97;4889445;29;20167;-68
2022/07/07 06:45:10;;;;;;;6.18;1.10;;;;;;;16.72;86.90;102017.94;4884047;29;20104;-67
2022/07/07 06:47:35;;;;;;;5.03;1.67;;;;;;;16.72;87.14;102011.75;4893906;29;20159;-67
2022/07/07 06:50:01;;;;;;;8.32;2.40;;;;;;;16.74;86.72;102004.25;4893867;29;20067;-66
2022/07/07 06:52:26;;;;;;;11.57;2.33;;;;;;;16.81;86.28;102015.88;4894028;29;20468;-66
2022/07/07 06:54:51;;;;;;;9.40;2.30;;;;;;;16.89;85.47;102012.16;4893917;29;20033;-66
2022/07/07 06:57:17;;;;;;;4.85;1.50;;;;;;;16.89;84.12;102023.75;4893922;29;20388;-67
2022/07/07 06:59:42;;;;;;;10.88;1.98;;;;;;;16.83;85.38;102027.28;4893460;29;20119;-68
2022/07/07 07:02:08;;;;;;;5.72;2.03;;;;;;;16.65;84.94;102020.63;4893982;29;20475;-67
2022/07/07 07:04:33;;;;;;;6.22;1.15;;;;;;;16.53;85.22;102025.00;4894105;29;20357;-67
2022/07/07 07:06:59;;;;;;;2.40;0.98;;;;;;;16.46;86.46;102021.47;4893899;29;20036;-67
2022/07/07 07:09:24;;;;;;;2.15;0.75;;;;;;;16.41;85.19;102026.66;4896742;29;20503;-66
2022/07/07 07:11:50;;;;;;;7.05;1.48;;;;;;;16.41;85.24;102029.34;4897713;29;20180;-67
2022/07/07 07:14:15;;;;;;;5.90;1.02;;;;;;;16.49;84.56;102039.09;4897639;29;20501;-66
2022/07/07 07:16:41;;;;;;;4.43;1.30;;;;;;;16.47;83.93;102036.59;4897615;29;20396;-66
2022/07/07 07:19:06;;;;;;;2.50;0.88;;;;;;;16.52;83.64;102042.19;4889935;29;20033;-67
2022/07/07 07:21:32;;;;;;;5.78;1.55;;;;;;;16.57;84.31;102039.69;4897496;29;20033;-66
2022/07/07 07:23:57;;;;;;;6.07;1.80;;;;;;;16.58;84.76;102029.75;4897484;29;20388;-67
2022/07/07 07:26:23;;;;;;;3.15;1.35;;;;;;;16.62;84.85;102041.78;4897496;29;20056;-66
2022/07/07 07:28:49;;;;;;;5.57;1.42;;;;;;;16.73;83.24;102045.72;4897284;29;20123;-66
2022/07/07 07:31:14;;;;;;;4.93;1.15;;;;;;;16.89;81.23;102050.69;4897324;29;20715;-66
2022/07/07 07:33:39;;;;;;;4.55;1.70;;;;;;;17.16;82.39;102047.94;4897500;29;20568;-66
2022/07/07 07:36:08;;;;;;;3.28;1.20;;;;;;;17.47;78.66;102056.16;4897481;29;20495;-67
2022/07/07 07:38:35;;;;;;;3.08;1.38;;;;;;;17.53;78.02;102066.09;4897108;29;20040;-66
2022/07/07 07:41:02;;;;;;;2.65;1.60;;;;;;;17.56;78.61;102074.81;4897444;29;20033;-67
2022/07/07 07:43:28;;;;;;;6.03;1.38;;;;;;;17.46;78.14;102077.97;4897150;29;20525;-66
2022/07/07 07:45:53;;;;;;;6.70;2.15;;;;;;;17.31;81.92;102087.09;4897103;29;20056;-67
2022/07/07 07:48:18;;;;;;;7.22;2.47;;;;;;;17.17;83.32;102080.09;4897032;29;20071;-67
2022/07/07 07:50:44;;;;;;;5.20;1.13;;;;;;;17.09;83.88;102083.03;4896886;29;20614;-67
2022/07/07 07:53:09;;;;;;;3.95;1.20;;;;;;;17.01;83.38;102078.69;4896939;29;20037;-67
2022/07/07 07:55:35;;;;;;;2.30;1.58;;;;;;;16.96;84.43;102078.47;4896878;29;20115;-67
2022/07/07 07:58:01;;;;;;;4.40;1.60;;;;;;;17.03;83.95;102081.19;4896649;29;20180;-67
2022/07/07 08:00:26;;;;;;;2.65;1.52;;;;;;;17.29;84.04;102075.72;4896495;29;20053;-67
2022/07/07 08:02:52;;;;;;;2.22;1.58;;;;;;;17.49;81.39;102081.03;4889280;29;20441;-67
2022/07/07 08:05:18;;;;;;;3.92;2.42;;;;;;;17.56;81.71;102072.94;4896674;29;20032;-68
2022/07/07 08:07:45;;;;;;;4.65;1.92;;;;;;;17.75;79.93;102072.03;4896778;29;20043;-67
2022/07/07 08:10:13;;;;;;;5.20;2.42;;;;;;;17.75;81.66;102068.50;4896772;29;20115;-67
2022/07/07 08:12:39;;;;;;;7.10;2.10;;;;;;;17.62;79.15;102073.94;4879670;29;20400;-67
2022/07/07 08:15:06;;;;;;;4.35;2.00;;;;;;;17.34;80.29;102077.75;4896472;29;20036;-68
2022/07/07 08:17:31;;;;;;;7.47;1.63;;;;;;;17.20;80.37;102079.69;4896477;29;20076;-68
2022/07/07 08:19:56;;;;;;;4.18;1.38;;;;;;;17.14;80.47;102096.69;4895255;29;20048;-67
2022/07/07 08:22:22;;;;;;;4.18;1.02;;;;;;;16.99;81.50;102090.69;4896229;29;20119;-68
2022/07/07 08:24:48;;;;;;;4.95;1.75;;;;;;;16.88;83.75;102105.63;4896345;29;20367;-68
2022/07/07 08:27:14;;;;;;;6.10;2.08;;;;;;;16.71;84.08;102121.34;4894859;29;20039;-67
2022/07/07 08:29:40;;;;;;;3.13;1.17;;;;;;;16.52;85.55;102119.47;4892804;29;20044;-68
2022/07/07 08:32:07;;;;;;;6.45;1.58;;;;;;;16.43;87.02;102110.75;4875097;29;20069;-69
2022/07/07 08:34:33;;;;;;;6.85;1.90;;;;;;;16.46;88.02;102114.91;4892217;29;20040;-67
2022/07/07 08:36:58;;;;;;;3.17;1.40;;;;;;;16.74;86.02;102112.00;4892461;29;20036;-69
2022/07/07 08:39:23;;;;;;;2.30;1.23;;;;;;;17.31;84.17;102111.38;4892127;29;20036;-69
2022/07/07 08:41:49;;;;;;;1.27;1.00;;;;;;;17.74;79.84;102118.94;4885591;29;20048;-66
2022/07/07 08:44:15;;;;;;;14.45;1.75;;;;;;;17.58;80.13;102114.03;4895930;29;20040;-67
2022/07/07 08:46:41;;;;;;;5.93;1.92;;;;;;;17.39;80.18;102118.41;4895932;29;20040;-68
2022/07/07 08:49:09;;;;;;;3.22;1.23;;;;;;;17.27;81.09;102117.44;4895892;29;20032;-67
2022/07/07 08:51:37;;;;;;;3.90;1.52;;;;;;;17.17;81.10;102120.53;4895915;29;20063;-67
2022/07/07 08:54:03;;;;;;;1.73;0.85;;;;;;;17.12;80.07;102122.22;4895658;29;20132;-68
2022/07/07 08:56:31;;;;;;;9.57;1.23;;;;;;;17.17;81.29;102133.19;4895708;29;20020;-67
2022/07/07 08:58:57;;;;;;;2.75;0.70;;;;;;;17.42;80.62;102136.91;4878934;29;20043;-67
2022/07/07 09:01:22;;;;;;;1.58;0.70;;;;;;;17.61;79.08;102126.28;4895572;29;20080;-67
2022/07/07 09:03:48;;;;;;;4.28;1.35;;;;;;;17.96;78.64;102133.00;4895972;29;20025;-67
2022/07/07 09:06:14;;;;;;;5.75;1.75;;;;;;;19.01;74.25;102131.72;4895605;29;20071;-69
2022/07/07 09:08:40;;;;;;;6.25;1.42;;;;;;;20.11;69.35;102136.38;4895705;29;20028;-67
2022/07/07 09:11:09;;;;;;;4.95;2.10;;;;;;;20.06;68.58;102147.06;4895494;29;20039;-68
2022/07/07 09:13:35;;;;;;;5.75;1.73;;;;;;;19.65;70.23;102154.00;4895364;29;20047;-67
2022/07/07 09:16:04;;;;;;;5.43;1.73;;;;;;;19.46;71.38;102145.84;4895294;29;20127;-68
2022/07/07 09:18:46;;;;;;;3.78;1.27;;;;;;;19.20;73.38;102138.84;4895391;29;20441;-67
2022/07/07 09:21:25;;;;;;;;;;;;;;;18.94;74.69;102137.22;4895801;29;20064;-67
2022/07/07 09:23:56;;;;;;;7.40;2.20;;;;;;;18.53;75.26;102146.63;4895279;29;19916;-67
2022/07/07 09:26:45;;;;;;;4.65;1.35;;;;;;;18.16;76.38;102156.41;4887737;29;20346;-66
2022/07/07 09:29:28;;;;;;;6.10;2.15;;;;;;;17.80;74.63;102160.47;4895348;29;20472;-67
2022/07/07 09:31:53;;;;;;;5.38;1.33;;;;;;;17.57;76.68;102165.50;4895309;29;20044;-66
2022/07/07 09:34:20;;;;;;;6.57;2.00;;;;;;;17.47;78.35;102171.31;4894958;29;20384;-67
2022/07/07 09:39:46;;;;;;;8.18;1.50;;;;;;;17.27;79.33;102176.75;4895115;29;20090;-67
2022/07/07 09:42:20;;;;;;;4.15;1.30;;;;;;;17.17;80.09;102179.84;4894955;29;20033;-72
2022/07/07 09:44:48;;;;;;;2.92;1.52;;;;;;;17.11;81.09;102183.38;4894987;29;20049;-72
2022/07/07 09:47:14;;;;;;;6.88;1.38;;;;;;;17.14;80.74;102180.28;4894946;29;20476;-71
2022/07/07 09:49:43;;;;;;;5.53;1.30;;;;;;;17.27;79.54;102187.53;4894896;29;20041;-72
2022/07/07 09:52:19;;;;;;;1.73;0.90;;;;;;;17.42;79.27;102196.25;4894956;29;20070;-72
2022/07/07 09:54:49;;;;;;;6.45;1.40;;;;;;;17.78;79.04;102197.59;4894506;29;20033;-72
2022/07/07 09:57:15;;;;;;;6.60;1.63;;;;;;;18.14;78.81;102194.41;4895010;29;20045;-72
2022/07/07 09:59:41;;;;;;;3.28;1.00;;;;;;;18.58;76.89;102189.22;4894586;29;20476;-71
2022/07/07 10:02:19;;;;;;;7.20;1.45;;;;;;;18.91;74.50;102189.00;4894966;29;20225;-72
2022/07/07 10:04:49;;;;;;;5.32;1.23;;;;;;;18.83;71.96;102189.25;4894527;29;20044;-71
2022/07/07 10:07:37;;;;;;;3.42;0.88;;;;;;;18.61;72.81;102196.88;4894327;29;20037;-72
2022/07/07 10:10:06;;;;;;;5.88;0.90;;;;;;;18.35;73.59;102204.06;4886933;29;20520;-72
2022/07/07 10:12:32;;;;;;;2.10;1.10;;;;;;;18.11;74.68;102207.50;4894543;29;20043;-72
2022/07/07 10:15:11;;;;;;;4.65;1.25;;;;;;;17.93;74.74;102230.59;4894291;29;20114;-72
2022/07/07 10:17:36;;;;;;;1.67;0.82;;;;;;;17.78;75.29;102223.78;4894257;29;20036;-72
2022/07/07 10:20:02;;;;;;;3.25;1.05;;;;;;;17.67;76.14;102227.94;4894400;29;20051;-71
2022/07/07 10:22:29;;;;;;;2.58;1.25;;;;;;;17.60;76.93;102225.25;4894307;29;20088;-71
2022/07/07 10:24:56;;;;;;;6.68;1.10;;;;;;;17.73;78.29;102235.19;4877026;29;20032;-72
2022/07/07 10:27:23;;;;;;;3.30;1.08;;;;;;;17.84;79.66;102234.59;4894114;29;20048;-72
2022/07/07 10:29:59;;;;;;;1.17;1.00;;;;;;;18.05;79.18;102238.91;4877146;29;20440;-71
2022/07/07 10:32:41;;;;;;;2.55;1.23;;;;;;;18.35;76.58;102235.66;4893989;29;20088;-71
2022/07/07 10:35:15;;;;;;;4.32;1.00;;;;;;;18.61;76.93;102248.22;4893954;29;20032;-71
2022/07/07 10:37:52;;;;;;;2.20;0.93;;;;;;;18.80;75.25;102251.88;4893611;29;20048;-71
2022/07/07 10:40:22;;;;;;;3.40;1.05;;;;;;;18.92;75.97;102242.03;4893646;29;20488;-71
2022/07/07 10:43:25;;;;;;;1.77;1.35;;;;;;;18.95;76.29;102241.59;4892992;29;20040;-71
2022/07/07 10:45:52;;;;;;;3.05;1.63;;;;;;;18.82;75.23;102253.31;4893608;29;20476;-71
2022/07/07 10:48:40;;;;;;;3.67;1.70;;;;;;;18.66;75.40;102261.09;4893570;29;20033;-71
2022/07/07 10:51:23;;;;;;;1.65;1.55;;;;;;;18.39;77.24;102258.50;4893494;29;20387;-71
2022/07/07 10:54:06;;;;;;;4.97;1.60;;;;;;;18.14;77.46;102255.69;4893815;29;20443;-71
2022/07/07 10:56:53;;;;;;;5.65;1.60;;;;;;;18.02;78.42;102273.56;4893520;29;20505;-71
2022/07/07 10:59:20;;;;;;;4.47;2.75;;;;;;;17.91;78.66;102273.19;4893680;29;20036;-71
2022/07/07 11:02:00;;;;;;;5.15;3.25;;;;;;;17.90;79.38;102276.09;4893268;29;20508;-71
2022/07/07 11:04:45;;;;;;;4.43;1.85;;;;;;;17.95;80.18;102274.44;4893437;29;20540;-71
2022/07/07 11:07:14;;;;;;;5.10;1.50;;;;;;;17.99;80.07;102280.22;4893412;29;20029;-70
2022/07/07 11:09:57;;;;;;;1.90;1.50;;;;;;;17.96;78.86;102286.06;4893466;29;20042;-70
2022/07/07 11:12:45;;;;;;;7.18;2.28;;;;;;;17.90;79.57;102284.19;4893478;29;20111;-70
2022/07/07 11:15:23;;;;;;;3.78;1.60;;;;;;;17.84;80.00;102295.81;4876492;29;20428;-71
2022/07/07 11:18:09;;;;;;;1.40;1.30;;;;;;;17.82;80.35;102296.03;4887949;29;20105;-71
2022/07/07 11:20:34;;;;;;;2.40;1.42;;;;;;;17.73;79.86;102299.94;4893768;29;20029;-71
2022/07/07 11:23:13;;;;;;;4.85;1.83;;;;;;;17.72;80.29;102309.91;4893699;29;20088;-71
2022/07/07 11:25:40;;;;;;;3.83;1.65;;;;;;;17.81;81.78;102304.34;4893549;29;20036;-70
2022/07/07 11:28:07;;;;;;;3.05;1.48;;;;;;;18.09;80.41;102310.31;4893735;29;20032;-71
2022/07/07 11:30:34;;;;;;;6.40;1.92;;;;;;;18.43;79.82;102312.94;4893463;29;20047;-71